Time;durP1;ratioP1;P1;durP2;ratioP2;P2;SDS_P1;SDS_P2;PMS_P1;PMS_P2;Temp;Humidity;BMP_temperature;BMP_pressure;BME280_temperature;BME280_humidity;BME280_pressure;Samples;Min_cycle;Max_cycle;Signal;HPM_P1;HPM_P2
2022/09/22 00:00:18;;;;;;;2.47;1.83;;;;;;;13.17;51.11;99807.78;3144714;28;20109;-60
2022/09/22 00:01:50;;;;;;;2.83;1.63;;;;;;;13.12;51.66;99803.75;3143968;28;20048;-60
2022/09/22 00:03:22;;;;;;;2.63;2.00;;;;;;;13.01;51.79;99788.66;3144276;28;20045;-59
2022/09/22 00:04:54;;;;;;;3.70;2.17;;;;;;;13.05;51.66;99800.63;3144719;28;20048;-60
2022/09/22 00:06:30;;;;;;;2.33;1.50;;;;;;;12.98;52.16;99800.13;3144428;28;20063;-60
2022/09/22 00:08:02;;;;;;;2.85;1.70;;;;;;;12.95;52.32;99796.81;3144389;28;20590;-59
2022/09/22 00:09:34;;;;;;;4.35;1.90;;;;;;;12.88;52.40;99787.66;3144569;28;20048;-61
2022/09/22 00:11:08;;;;;;;2.70;1.88;;;;;;;12.86;52.33;99797.34;3144343;28;20049;-59
2022/09/22 00:12:42;;;;;;;3.80;2.08;;;;;;;12.84;52.35;99794.81;3144610;28;20036;-59
2022/09/22 00:14:17;;;;;;;3.00;1.80;;;;;;;12.84;52.43;99797.44;3137788;28;20422;-59
2022/09/22 00:15:48;;;;;;;3.15;1.90;;;;;;;12.78;52.55;99783.84;3144636;28;20122;-59
2022/09/22 00:17:22;;;;;;;2.55;1.70;;;;;;;12.74;52.85;99786.63;3145304;28;20056;-60
2022/09/22 00:18:54;;;;;;;2.75;2.05;;;;;;;12.74;52.83;99785.78;3144003;28;20261;-60
2022/09/22 00:20:24;;;;;;;2.67;1.88;;;;;;;12.63;53.00;99788.13;3144300;28;20052;-60
2022/09/22 00:21:56;;;;;;;3.75;1.95;;;;;;;12.67;53.25;99794.88;3144516;28;20052;-59
2022/09/22 00:23:28;;;;;;;2.75;1.70;;;;;;;12.63;53.09;99789.00;3144676;28;20049;-59
2022/09/22 00:25:01;;;;;;;2.38;1.65;;;;;;;12.63;53.41;99793.34;3144439;28;20048;-59
2022/09/22 00:26:33;;;;;;;3.45;1.80;;;;;;;12.62;53.50;99786.44;3144226;28;20066;-60
2022/09/22 00:28:07;;;;;;;3.37;1.87;;;;;;;12.57;53.38;99780.63;3144302;28;20502;-60
2022/09/22 00:29:38;;;;;;;4.30;2.05;;;;;;;12.53;53.49;99788.63;3144477;28;20378;-59
2022/09/22 00:31:11;;;;;;;3.72;2.67;;;;;;;12.53;53.55;99788.63;3144196;28;20049;-59
2022/09/22 00:32:43;;;;;;;2.53;1.80;;;;;;;12.51;53.45;99780.03;3144277;28;20051;-60
2022/09/22 00:34:16;;;;;;;2.90;1.60;;;;;;;12.49;53.95;99779.28;3144475;28;20964;-59
2022/09/22 00:35:56;;;;;;;7.38;1.83;;;;;;;12.48;53.81;99788.03;3144644;28;20060;-59
2022/09/22 00:37:28;;;;;;;3.28;1.63;;;;;;;12.45;54.10;99782.97;3144610;28;20094;-59
2022/09/22 00:39:00;;;;;;;2.22;1.58;;;;;;;12.48;53.88;99790.66;3144338;28;20051;-60
2022/09/22 00:40:31;;;;;;;2.40;1.63;;;;;;;12.50;53.52;99790.56;3144306;28;20444;-59
2022/09/22 00:42:03;;;;;;;2.60;1.50;;;;;;;12.40;53.40;99761.47;3144402;28;20040;-59
2022/09/22 00:43:37;;;;;;;3.10;1.35;;;;;;;12.55;53.63;99793.78;3144330;28;20429;-59
2022/09/22 00:45:12;;;;;;;2.20;1.13;;;;;;;12.50;53.45;99798.41;3144343;28;20563;-59
2022/09/22 00:46:46;;;;;;;1.85;1.48;;;;;;;12.35;53.49;99776.53;3144515;28;20048;-60
2022/09/22 00:48:21;;;;;;;1.52;1.00;;;;;;;12.43;53.50;99784.81;3144453;28;20052;-59
2022/09/22 00:50:00;;;;;;;1.63;1.20;;;;;;;12.41;53.77;99783.22;3144276;28;20068;-60
2022/09/22 00:51:37;;;;;;;1.95;1.35;;;;;;;12.47;53.25;99785.50;3144459;28;20052;-59
2022/09/22 00:53:12;;;;;;;1.85;1.38;;;;;;;12.48;53.28;99788.03;3144241;28;20049;-59
2022/09/22 00:54:42;;;;;;;1.98;1.52;;;;;;;12.45;53.79;99782.13;3144090;28;20060;-59
2022/09/22 00:56:18;;;;;;;4.20;1.70;;;;;;;12.41;53.84;99784.06;3143370;28;20440;-59
2022/09/22 00:57:52;;;;;;;2.92;1.63;;;;;;;12.41;53.74;99780.59;3144841;28;20041;-59
2022/09/22 00:59:26;;;;;;;5.32;1.50;;;;;;;12.35;53.72;99770.47;3145441;28;20052;-59
2022/09/22 01:00:59;;;;;;;4.68;2.30;;;;;;;12.40;53.87;99784.97;3145836;28;20593;-59
2022/09/22 01:02:31;;;;;;;2.53;1.85;;;;;;;12.40;54.04;99782.38;3139023;28;20193;-60
2022/09/22 01:04:04;;;;;;;2.83;2.08;;;;;;;12.41;54.06;99784.06;3145530;28;20052;-60
2022/09/22 01:05:36;;;;;;;3.15;1.77;;;;;;;12.41;53.77;99789.28;3146316;28;20147;-59
2022/09/22 01:07:08;;;;;;;3.53;1.80;;;;;;;12.42;53.82;99792.72;3145578;28;20052;-59
2022/09/22 01:08:42;;;;;;;2.27;1.80;;;;;;;12.43;53.74;99792.66;3145234;28;20512;-59
2022/09/22 01:10:14;;;;;;;2.53;1.85;;;;;;;12.32;54.00;99776.69;3145253;28;20052;-59
2022/09/22 01:11:46;;;;;;;3.13;2.03;;;;;;;12.42;53.92;99796.19;3145481;28;20044;-60
2022/09/22 01:13:27;;;;;;;3.65;2.30;;;;;;;12.36;54.10;99780.00;3145580;28;20040;-59
2022/09/22 01:15:13;;;;;;;3.85;2.35;;;;;;;12.39;54.05;99796.34;3145472;28;20414;-59
2022/09/22 01:16:54;;;;;;;3.00;1.80;;;;;;;12.38;54.45;99789.44;3141899;28;20082;-59
2022/09/22 01:18:35;;;;;;;3.38;1.90;;;;;;;12.38;54.53;99788.59;3140918;28;20086;-59
2022/09/22 01:20:33;;;;;;;2.10;1.70;;;;;;;12.35;54.43;99792.22;3146383;28;20083;-59
2022/09/22 01:22:20;;;;;;;4.72;1.92;;;;;;;12.34;54.67;99784.47;3143139;28;20048;-59
2022/09/22 01:24:37;;;;;;;2.60;1.67;;;;;;;12.26;54.96;99788.31;3146581;28;20053;-59
2022/09/22 01:26:24;;;;;;;3.58;2.10;;;;;;;12.26;54.80;99787.47;3144720;28;20053;-59
2022/09/22 01:28:37;;;;;;;5.65;2.55;;;;;;;12.24;55.18;99784.09;3140083;28;20052;-59
2022/09/22 01:30:22;;;;;;;3.80;1.77;;;;;;;12.18;55.56;99779.19;3145024;28;20064;-59
2022/09/22 01:32:02;;;;;;;2.95;2.20;;;;;;;12.16;55.58;99784.50;3146370;28;20147;-59
2022/09/22 01:33:42;;;;;;;5.45;2.22;;;;;;;12.13;55.63;99782.06;3143274;28;20047;-59
2022/09/22 01:35:21;;;;;;;2.47;1.90;;;;;;;12.12;55.81;99776.91;3146009;28;20056;-59
2022/09/22 01:37:06;;;;;;;3.15;2.05;;;;;;;12.11;56.06;99777.84;3146082;28;20537;-59
2022/09/22 01:38:51;;;;;;;2.92;2.13;;;;;;;12.07;56.16;99782.38;3146287;28;20060;-59
2022/09/22 01:40:30;;;;;;;4.43;2.67;;;;;;;12.05;55.99;99786.81;3141264;28;20074;-59
2022/09/22 01:42:07;;;;;;;3.17;2.00;;;;;;;12.05;56.18;99789.44;3145761;28;20146;-59
2022/09/22 01:43:47;;;;;;;3.85;2.03;;;;;;;12.04;56.56;99790.38;3145689;28;20532;-59
2022/09/22 01:45:24;;;;;;;3.38;2.40;;;;;;;12.01;56.35;99791.38;3146063;28;20064;-59
2022/09/22 01:47:01;;;;;;;2.45;2.05;;;;;;;12.02;56.36;99803.47;3146342;28;20109;-59
2022/09/22 01:48:35;;;;;;;2.92;2.13;;;;;;;12.02;56.37;99798.25;3145650;28;20052;-60
2022/09/22 01:50:11;;;;;;;2.25;2.03;;;;;;;12.04;56.49;99801.66;3145975;28;20136;-60
2022/09/22 01:51:47;;;;;;;2.80;2.00;;;;;;;12.02;56.46;99787.81;3146089;28;20147;-59
2022/09/22 01:53:22;;;;;;;3.00;1.80;;;;;;;12.02;56.23;99787.81;3146022;28;20056;-59
2022/09/22 01:54:58;;;;;;;6.70;1.98;;;;;;;12.00;56.31;99784.44;3145274;28;20072;-59
2022/09/22 01:56:33;;;;;;;2.88;2.10;;;;;;;11.98;56.35;99781.09;3145658;28;20048;-59
2022/09/22 01:58:10;;;;;;;2.80;1.80;;;;;;;11.98;56.32;99778.47;3145709;28;20052;-59
2022/09/22 01:59:47;;;;;;;2.80;2.08;;;;;;;11.96;56.32;99775.09;3145782;28;20063;-59
2022/09/22 02:01:24;;;;;;;2.38;1.65;;;;;;;11.96;56.58;99775.09;3145758;28;20067;-59
2022/09/22 02:03:01;;;;;;;2.33;1.70;;;;;;;11.96;56.44;99769.03;3145686;28;20056;-60
2022/09/22 02:04:38;;;;;;;2.35;1.67;;;;;;;11.96;56.26;99764.66;3146011;28;20109;-59
2022/09/22 02:06:14;;;;;;;3.60;1.92;;;;;;;11.93;56.79;99764.81;3145578;28;20060;-60
2022/09/22 02:07:47;;;;;;;3.08;1.83;;;;;;;11.94;56.39;99768.25;3145416;28;20052;-60
2022/09/22 02:09:23;;;;;;;2.58;1.98;;;;;;;11.94;56.28;99761.25;3145845;28;20045;-60
2022/09/22 02:10:58;;;;;;;2.33;1.83;;;;;;;11.94;56.44;99757.81;3145713;28;20055;-60
2022/09/22 02:12:29;;;;;;;2.40;1.60;;;;;;;11.93;56.62;99769.19;3145219;28;20449;-60
2022/09/22 02:14:04;;;;;;;2.50;1.85;;;;;;;11.93;56.44;99764.81;3145407;28;20040;-60
2022/09/22 02:17:26;;;;;;;3.33;2.03;;;;;;;11.93;56.29;99756.97;3145518;28;20048;-60
2022/09/22 02:19:05;;;;;;;2.80;2.05;;;;;;;11.92;56.48;99770.97;3145620;28;20741;-60
2022/09/22 02:20:35;;;;;;;3.55;1.48;;;;;;;11.92;56.27;99773.56;3145842;28;20052;-60
2022/09/22 02:22:09;;;;;;;2.28;1.77;;;;;;;11.93;56.22;99771.78;3145793;28;20074;-59
2022/09/22 02:23:43;;;;;;;2.38;1.52;;;;;;;11.91;56.21;99778.84;3145460;28;20044;-59
2022/09/22 02:25:15;;;;;;;4.93;1.75;;;;;;;11.93;56.29;99775.25;3145509;28;20053;-60
2022/09/22 02:26:47;;;;;;;3.67;2.00;;;;;;;11.95;56.25;99770.81;3145193;28;20040;-59
2022/09/22 02:28:22;;;;;;;2.80;1.40;;;;;;;11.97;55.86;99776.75;3145702;28;20056;-60
2022/09/22 02:29:59;;;;;;;2.60;1.63;;;;;;;11.96;55.90;99771.63;3145380;28;20056;-60
2022/09/22 02:31:34;;;;;;;3.25;1.50;;;;;;;11.98;55.94;99773.25;3145346;28;20060;-60
2022/09/22 02:33:08;;;;;;;2.85;1.67;;;;;;;11.99;55.89;99768.88;3145433;28;20056;-60
2022/09/22 02:34:40;;;;;;;2.22;1.60;;;;;;;12.02;56.16;99773.94;3145485;28;20056;-60
2022/09/22 02:36:27;;;;;;;2.53;1.40;;;;;;;12.02;56.16;99772.16;3145140;28;20570;-60
2022/09/22 02:38:07;;;;;;;3.92;1.45;;;;;;;11.96;56.17;99762.03;3145516;28;20056;-60
2022/09/22 02:39:44;;;;;;;1.75;1.20;;;;;;;11.96;56.25;99759.44;3145409;28;20541;-59
2022/09/22 02:41:22;;;;;;;2.13;1.42;;;;;;;11.99;56.22;99767.09;3145197;28;20125;-59
2022/09/22 02:43:01;;;;;;;1.85;1.13;;;;;;;12.01;55.99;99759.22;3145650;28;20053;-59
2022/09/22 02:44:39;;;;;;;4.35;1.20;;;;;;;11.95;56.14;99756.88;3144984;28;20051;-60
2022/09/22 02:46:17;;;;;;;2.20;1.50;;;;;;;11.91;56.56;99753.59;3145453;28;20387;-59
2022/09/22 02:47:56;;;;;;;1.90;1.25;;;;;;;11.87;56.46;99761.69;3145514;28;20064;-59
2022/09/22 02:49:30;;;;;;;2.40;1.40;;;;;;;11.85;56.51;99766.97;3145327;28;20151;-59
2022/09/22 02:51:01;;;;;;;2.60;1.50;;;;;;;11.80;56.72;99761.97;3145443;28;20102;-60
2022/09/22 02:52:35;;;;;;;1.60;1.10;;;;;;;11.81;56.71;99763.63;3145092;28;20056;-60
2022/09/22 02:54:06;;;;;;;3.38;1.23;;;;;;;11.83;56.39;99763.53;3145321;28;20455;-60
2022/09/22 02:55:38;;;;;;;3.03;1.70;;;;;;;11.83;56.72;99767.03;3145456;28;20049;-60
2022/09/22 02:57:10;;;;;;;2.80;1.60;;;;;;;11.81;56.36;99762.78;3145379;28;20514;-60
2022/09/22 02:58:42;;;;;;;2.75;1.35;;;;;;;11.85;56.42;99769.56;3145242;28;20048;-60
2022/09/22 03:00:15;;;;;;;2.75;1.80;;;;;;;11.87;56.51;99774.72;3145177;28;20139;-59
2022/09/22 03:01:48;;;;;;;2.58;1.70;;;;;;;11.83;56.50;99771.38;3144998;28;20044;-60
2022/09/22 03:03:20;;;;;;;3.78;1.73;;;;;;;11.82;56.36;99769.69;3145007;28;20072;-60
2022/09/22 03:04:53;;;;;;;2.05;1.45;;;;;;;11.87;56.20;99772.13;3145266;28;20060;-60
2022/09/22 03:06:24;;;;;;;4.75;1.70;;;;;;;11.87;56.71;99772.94;3145051;28;20079;-60
2022/09/22 03:07:56;;;;;;;3.38;1.80;;;;;;;11.88;56.54;99771.19;3144656;28;20063;-60
2022/09/22 03:09:27;;;;;;;2.33;1.92;;;;;;;11.86;56.39;99776.50;3144990;28;20532;-60
2022/09/22 03:10:59;;;;;;;2.72;1.55;;;;;;;11.83;56.74;99772.25;3149392;28;20056;-59
2022/09/22 03:12:30;;;;;;;2.13;1.50;;;;;;;11.81;56.77;99778.44;3144940;28;20110;-59
2022/09/22 03:14:01;;;;;;;2.03;1.40;;;;;;;11.79;57.10;99775.91;3144709;28;20480;-59
2022/09/22 03:15:33;;;;;;;3.08;1.75;;;;;;;11.79;57.22;99778.50;3145144;28;20055;-59
2022/09/22 03:17:05;;;;;;;4.38;2.03;;;;;;;11.80;56.95;99774.13;3144229;28;20086;-59
2022/09/22 03:18:37;;;;;;;2.55;2.13;;;;;;;11.80;57.13;99776.75;3144024;28;20079;-59
2022/09/22 03:20:14;;;;;;;2.85;2.00;;;;;;;11.80;57.19;99777.59;3143522;28;20063;-58
2022/09/22 03:21:45;;;;;;;2.95;1.83;;;;;;;11.79;57.12;99780.28;3143673;28;20092;-58
2022/09/22 03:23:17;;;;;;;2.20;1.60;;;;;;;11.78;57.41;99778.59;3138646;28;20056;-59
2022/09/22 03:24:48;;;;;;;2.55;1.98;;;;;;;11.78;57.21;99769.00;3144065;28;20501;-59
2022/09/22 03:26:20;;;;;;;4.95;2.08;;;;;;;11.76;57.28;99768.22;3143490;28;20108;-59
2022/09/22 03:27:52;;;;;;;5.43;1.83;;;;;;;11.76;57.55;99775.22;3143699;28;20046;-59
2022/09/22 03:29:24;;;;;;;5.22;2.63;;;;;;;11.71;57.61;99772.88;3144432;28;20127;-59
2022/09/22 03:30:55;;;;;;;3.00;1.98;;;;;;;11.73;57.62;99777.97;3144180;28;20056;-59
2022/09/22 03:32:27;;;;;;;2.45;1.83;;;;;;;11.77;57.58;99776.91;3143949;28;20590;-59
2022/09/22 03:33:59;;;;;;;3.20;1.80;;;;;;;11.77;57.50;99782.97;3143986;28;20052;-60
2022/09/22 03:35:31;;;;;;;2.58;1.80;;;;;;;11.80;57.08;99780.22;3142809;28;20044;-59
2022/09/22 03:37:03;;;;;;;2.45;1.95;;;;;;;11.80;57.53;99784.56;3143078;28;20053;-60
2022/09/22 03:38:35;;;;;;;2.65;1.73;;;;;;;11.81;57.42;99781.91;3143343;28;20074;-59
2022/09/22 03:40:08;;;;;;;2.67;2.00;;;;;;;11.80;57.21;99788.03;3143751;28;20052;-59
2022/09/22 03:41:40;;;;;;;2.55;2.13;;;;;;;11.80;57.50;99784.56;3143681;28;20458;-58
2022/09/22 03:43:12;;;;;;;2.80;1.88;;;;;;;11.82;57.37;99774.91;3143964;28;20135;-58
2022/09/22 03:44:44;;;;;;;2.55;2.13;;;;;;;11.81;57.57;99783.66;3143102;28;20106;-60
2022/09/22 03:46:16;;;;;;;2.80;2.08;;;;;;;11.81;57.57;99781.06;3143841;28;20052;-60
2022/09/22 03:47:48;;;;;;;3.28;2.42;;;;;;;11.78;57.67;99789.88;3143687;28;20393;-60
2022/09/22 03:49:20;;;;;;;3.92;2.28;;;;;;;11.75;57.87;99790.03;3143654;28;20064;-59
2022/09/22 03:50:53;;;;;;;3.38;2.67;;;;;;;11.72;58.12;99791.97;3143760;28;20470;-59
2022/09/22 03:52:26;;;;;;;2.38;1.83;;;;;;;11.71;58.20;99800.69;3143720;28;20044;-59
2022/09/22 03:53:58;;;;;;;4.28;2.05;;;;;;;11.67;58.56;99796.56;3143922;28;20045;-60
2022/09/22 03:55:28;;;;;;;4.55;2.60;;;;;;;11.62;58.52;99799.38;3144377;28;20048;-59
2022/09/22 03:57:00;;;;;;;3.53;2.58;;;;;;;11.63;58.82;99797.63;3144446;28;20056;-59
2022/09/22 03:58:32;;;;;;;4.15;2.38;;;;;;;11.66;58.35;99810.53;3144489;28;20060;-59
2022/09/22 04:00:05;;;;;;;6.15;2.40;;;;;;;11.66;58.76;99807.91;3144445;28;20052;-60
2022/09/22 04:01:36;;;;;;;4.05;2.38;;;;;;;11.66;58.80;99816.59;3144473;28;20048;-59
2022/09/22 04:03:09;;;;;;;3.65;2.50;;;;;;;11.65;58.87;99816.66;3144662;28;20483;-59
2022/09/22 04:04:40;;;;;;;3.83;2.20;;;;;;;11.65;59.00;99807.06;3138973;28;20048;-60
2022/09/22 04:06:14;;;;;;;3.92;2.50;;;;;;;11.62;58.75;99817.63;3144711;28;20048;-59
2022/09/22 04:07:45;;;;;;;4.10;2.92;;;;;;;11.61;58.98;99811.56;3144395;28;20056;-60
2022/09/22 04:09:17;;;;;;;3.58;2.83;;;;;;;11.59;59.09;99813.44;3144238;28;20044;-60
2022/09/22 04:10:49;;;;;;;3.47;2.63;;;;;;;11.61;59.06;99811.56;3146573;28;20556;-59
2022/09/22 04:12:21;;;;;;;4.97;2.55;;;;;;;11.60;59.20;99815.13;3144581;28;20068;-59
2022/09/22 04:13:53;;;;;;;5.35;2.65;;;;;;;11.59;59.03;99813.44;3144684;28;20052;-59
2022/09/22 04:15:25;;;;;;;5.20;2.60;;;;;;;11.58;59.46;99816.94;3144552;28;20087;-60
2022/09/22 04:16:57;;;;;;;5.60;2.72;;;;;;;11.57;59.60;99815.28;3144270;28;20102;-60
2022/09/22 04:18:29;;;;;;;5.95;2.47;;;;;;;11.56;59.46;99817.94;3144784;28;20053;-60
2022/09/22 04:20:00;;;;;;;4.65;2.90;;;;;;;11.47;59.45;99811.41;3144610;28;20141;-60
2022/09/22 04:21:34;;;;;;;7.63;2.53;;;;;;;11.50;59.80;99810.41;3144327;28;20057;-60
2022/09/22 04:23:05;;;;;;;;;;;;;;;11.47;59.81;99813.16;3145379;28;20106;-60
2022/09/22 04:24:37;;;;;;;3.63;3.05;;;;;;;11.47;59.63;99818.38;3144011;28;19920;-60
2022/09/22 04:26:09;;;;;;;6.32;2.38;;;;;;;11.47;59.57;99811.41;3144299;28;20052;-60
2022/09/22 04:27:41;;;;;;;3.65;2.85;;;;;;;11.48;59.58;99807.06;3144463;28;20501;-60
2022/09/22 04:29:12;;;;;;;4.50;2.65;;;;;;;11.48;59.61;99813.13;3144753;28;20061;-60
2022/09/22 04:30:44;;;;;;;6.25;2.78;;;;;;;11.49;59.81;99817.41;3144167;28;20121;-60
2022/09/22 04:32:17;;;;;;;3.95;2.65;;;;;;;11.45;59.70;99817.63;3145115;28;20426;-60
2022/09/22 04:33:48;;;;;;;4.30;2.45;;;;;;;11.45;60.01;99817.63;3146756;28;20418;-60
2022/09/22 04:35:20;;;;;;;3.88;2.50;;;;;;;11.49;59.67;99813.94;3146941;28;20079;-60
2022/09/22 04:36:53;;;;;;;5.50;2.42;;;;;;;11.47;59.78;99819.22;3147111;28;20044;-60
2022/09/22 04:38:25;;;;;;;3.47;2.60;;;;;;;11.47;59.81;99821.84;3146373;28;20059;-61
2022/09/22 04:39:58;;;;;;;7.15;2.65;;;;;;;11.45;59.92;99818.47;3146713;28;20044;-60
2022/09/22 04:41:30;;;;;;;5.30;2.63;;;;;;;11.43;59.95;99815.09;3147119;28;20487;-60
2022/09/22 04:43:02;;;;;;;7.32;2.97;;;;;;;11.43;60.08;99820.31;3146433;28;20418;-61
2022/09/22 04:44:33;;;;;;;3.38;2.30;;;;;;;11.44;59.71;99818.53;3146854;28;20048;-59
2022/09/22 04:46:05;;;;;;;7.43;2.78;;;;;;;11.43;59.85;99815.09;3147025;28;20044;-60
2022/09/22 04:47:37;;;;;;;3.45;2.22;;;;;;;11.41;60.11;99816.91;3146823;28;20057;-60
2022/09/22 04:49:09;;;;;;;3.30;2.53;;;;;;;11.41;60.27;99823.91;3146810;28;20122;-60
2022/09/22 04:50:41;;;;;;;4.80;2.80;;;;;;;11.43;59.81;99819.47;3146327;28;20044;-60
2022/09/22 04:52:14;;;;;;;5.40;2.92;;;;;;;11.44;59.73;99819.38;3146637;28;20048;-60
2022/09/22 04:53:46;;;;;;;3.08;2.47;;;;;;;11.45;59.79;99823.69;3146903;28;20060;-61
2022/09/22 04:55:19;;;;;;;5.35;3.30;;;;;;;11.46;59.67;99824.53;3146572;28;20378;-60
2022/09/22 04:56:51;;;;;;;3.88;2.85;;;;;;;11.47;59.66;99821.00;3146851;28;20159;-60
2022/09/22 04:58:23;;;;;;;6.50;2.80;;;;;;;11.48;59.64;99818.31;3146862;28;20056;-60
2022/09/22 04:59:55;;;;;;;3.97;2.63;;;;;;;11.48;59.61;99822.72;3146342;28;20129;-61
2022/09/22 05:01:27;;;;;;;4.03;2.67;;;;;;;11.48;59.85;99823.53;3146191;28;20044;-60
2022/09/22 05:03:00;;;;;;;4.60;2.60;;;;;;;11.51;59.68;99825.16;3146837;28;20441;-59
2022/09/22 05:04:32;;;;;;;;;;;;;;;11.48;59.95;99820.94;3146902;28;20048;-59
2022/09/22 05:06:03;;;;;;;7.93;2.83;;;;;;;11.50;59.91;99821.69;3146569;28;19924;-59
2022/09/22 05:07:36;;;;;;;4.10;2.90;;;;;;;11.56;59.66;99823.16;3146148;28;20060;-59
2022/09/22 05:09:08;;;;;;;4.65;2.85;;;;;;;11.62;59.41;99830.69;3146563;28;20472;-60
2022/09/22 05:10:40;;;;;;;6.40;3.13;;;;;;;11.65;59.28;99833.13;3152840;28;20058;-59
2022/09/22 05:12:12;;;;;;;5.82;3.13;;;;;;;11.67;59.26;99826.09;3146402;28;20084;-59
2022/09/22 05:13:43;;;;;;;4.78;3.08;;;;;;;11.71;59.16;99819.81;3146171;28;20051;-59
2022/09/22 05:15:15;;;;;;;4.72;3.00;;;;;;;11.74;59.13;99821.41;3146741;28;20106;-59
2022/09/22 05:16:47;;;;;;;5.18;2.55;;;;;;;11.75;58.83;99821.34;3146263;28;20517;-59
2022/09/22 05:18:19;;;;;;;3.08;2.05;;;;;;;11.80;58.94;99824.56;3145831;28;20053;-58
2022/09/22 05:19:54;;;;;;;4.35;2.80;;;;;;;11.85;58.85;99816.53;3146245;28;20052;-57
2022/09/22 05:21:27;;;;;;;9.98;3.17;;;;;;;11.91;58.73;99823.22;3146139;28;20132;-59
2022/09/22 05:23:00;;;;;;;8.80;3.08;;;;;;;11.91;58.35;99818.84;3146138;28;20437;-58
2022/09/22 05:24:32;;;;;;;4.85;2.47;;;;;;;11.93;58.36;99819.59;3145500;28;20055;-58
2022/09/22 05:26:04;;;;;;;3.85;2.60;;;;;;;11.96;58.26;99818.63;3145806;28;20049;-60
2022/09/22 05:27:36;;;;;;;3.95;2.55;;;;;;;11.99;58.20;99819.28;3146150;28;20144;-59
2022/09/22 05:29:08;;;;;;;6.32;2.47;;;;;;;12.02;58.47;99821.75;3146378;28;20139;-57
2022/09/22 05:30:40;;;;;;;5.25;2.63;;;;;;;12.04;58.29;99814.69;3145850;28;20064;-58
2022/09/22 05:32:12;;;;;;;7.95;2.65;;;;;;;12.07;58.05;99813.69;3146123;28;20068;-58
2022/09/22 05:33:44;;;;;;;2.70;2.25;;;;;;;12.06;58.31;99819.81;3146180;28;20456;-60
2022/09/22 05:35:18;;;;;;;4.32;2.28;;;;;;;12.10;57.70;99812.66;3145704;28;20060;-58
2022/09/22 05:36:50;;;;;;;4.97;3.22;;;;;;;12.10;58.06;99808.31;3146322;28;20055;-57
2022/09/22 05:38:24;;;;;;;3.28;2.50;;;;;;;12.12;58.02;99805.63;3145783;28;20441;-57
2022/09/22 05:39:56;;;;;;;9.90;3.00;;;;;;;12.13;58.09;99808.16;3146505;28;20045;-57
2022/09/22 05:41:27;;;;;;;6.65;2.90;;;;;;;12.17;58.15;99812.28;3146435;28;20558;-57
2022/09/22 05:42:59;;;;;;;4.78;3.00;;;;;;;12.21;58.02;99808.59;3144683;28;20063;-58
2022/09/22 05:44:31;;;;;;;4.97;2.97;;;;;;;12.26;57.72;99811.81;3146324;28;20048;-58
2022/09/22 05:46:03;;;;;;;4.15;2.58;;;;;;;12.34;57.79;99807.97;3146254;28;20060;-58
2022/09/22 05:47:35;;;;;;;7.65;3.40;;;;;;;12.43;57.72;99812.72;3146008;28;20059;-57
2022/09/22 05:49:07;;;;;;;10.65;6.53;;;;;;;12.41;57.49;99798.88;3146208;28;20102;-58
2022/09/22 05:50:39;;;;;;;36.88;19.38;;;;;;;12.61;57.07;99809.13;3146152;28;20045;-59
2022/09/22 05:52:10;;;;;;;117.13;72.97;;;;;;;12.70;56.76;99819.06;3145843;28;20129;-59
2022/09/22 05:53:44;;;;;;;9.77;6.25;;;;;;;12.78;56.31;99812.59;3145651;28;20135;-58
2022/09/22 05:55:16;;;;;;;7.22;3.97;;;;;;;12.85;55.97;99820.03;3146139;28;20053;-58
2022/09/22 05:56:48;;;;;;;8.20;3.05;;;;;;;12.94;55.79;99816.06;3145366;28;20476;-57
2022/09/22 05:58:20;;;;;;;6.43;3.15;;;;;;;13.02;55.49;99815.66;3136328;28;20049;-58
2022/09/22 05:59:52;;;;;;;4.85;2.75;;;;;;;13.10;55.35;99818.66;3135674;28;20572;-57
2022/09/22 06:01:24;;;;;;;4.55;2.67;;;;;;;13.14;55.28;99821.03;3135170;28;20053;-56
2022/09/22 06:02:56;;;;;;;5.93;2.60;;;;;;;13.20;54.92;99823.31;3135004;28;20133;-56
2022/09/22 06:04:28;;;;;;;8.77;2.40;;;;;;;13.28;54.83;99822.06;3136028;28;20215;-57
2022/09/22 06:06:00;;;;;;;5.75;2.35;;;;;;;13.30;54.79;99815.81;3136217;28;20044;-55
2022/09/22 06:07:32;;;;;;;7.25;2.83;;;;;;;13.46;54.51;99825.41;3135940;28;20529;-54
2022/09/22 06:09:05;;;;;;;8.30;2.67;;;;;;;13.56;54.07;99837.06;3134910;28;20056;-56
2022/09/22 06:10:37;;;;;;;;;;;;;;;13.56;53.57;99831.81;3139683;28;20307;-60
2022/09/22 06:12:13;;;;;;;3.75;2.20;;;;;;;13.61;53.57;99830.63;3134934;28;19928;-60
2022/09/22 06:13:45;;;;;;;6.55;2.40;;;;;;;13.71;53.45;99830.94;3135543;28;20088;-56
2022/09/22 06:15:17;;;;;;;4.43;2.33;;;;;;;13.79;53.10;99833.13;3136267;28;20071;-58
2022/09/22 06:16:49;;;;;;;9.35;2.65;;;;;;;13.86;52.82;99827.44;3136444;28;20048;-58
2022/09/22 06:18:21;;;;;;;5.20;2.10;;;;;;;13.93;52.52;99827.94;3132741;28;20064;-58
2022/09/22 06:19:53;;;;;;;9.18;2.03;;;;;;;13.96;52.17;99824.28;3129633;28;20420;-58
2022/09/22 06:21:25;;;;;;;7.22;2.28;;;;;;;14.01;51.94;99822.22;3134479;28;20147;-58
2022/09/22 06:22:58;;;;;;;4.20;2.47;;;;;;;14.08;52.21;99829.66;3135679;28;20048;-57
2022/09/22 06:24:32;;;;;;;8.32;2.10;;;;;;;14.14;51.87;99830.19;3134823;28;20114;-58
2022/09/22 06:26:04;;;;;;;5.03;2.30;;;;;;;14.18;51.44;99832.56;3136228;28;20052;-57
2022/09/22 06:27:36;;;;;;;6.85;2.10;;;;;;;14.27;51.35;99829.38;3136466;28;20057;-57
2022/09/22 06:29:09;;;;;;;4.68;2.28;;;;;;;14.33;51.08;99830.78;3134268;28;20646;-59
2022/09/22 06:30:41;;;;;;;;;;;;;;;14.40;50.78;99828.63;3136109;28;20171;-58
2022/09/22 06:32:13;;;;;;;5.68;2.42;;;;;;;14.49;50.73;99822.84;3136204;28;19977;-59
2022/09/22 06:33:47;;;;;;;3.92;2.00;;;;;;;14.59;50.46;99817.94;3136867;28;20080;-57
2022/09/22 06:35:19;;;;;;;5.10;1.88;;;;;;;14.71;50.36;99827.66;3136794;28;20055;-58
2022/09/22 06:36:51;;;;;;;2.50;1.98;;;;;;;14.79;49.92;99823.63;3136367;28;20149;-58
2022/09/22 06:38:23;;;;;;;5.13;1.95;;;;;;;14.87;49.37;99835.41;3135668;28;20472;-58
2022/09/22 06:39:56;;;;;;;6.07;1.98;;;;;;;14.95;49.27;99833.16;3135815;28;20117;-58
2022/09/22 06:41:28;;;;;;;;;;;;;;;14.90;48.90;99837.84;3137333;28;20049;-59
2022/09/22 06:43:06;;;;;;;3.05;1.77;;;;;;;14.94;48.67;99836.72;3137037;28;19924;-58
2022/09/22 06:44:40;;;;;;;6.53;2.00;;;;;;;15.04;48.57;99843.06;3135978;28;20075;-59
2022/09/22 06:46:12;;;;;;;4.10;1.88;;;;;;;15.11;48.72;99830.38;3135623;28;20060;-59
2022/09/22 06:47:44;;;;;;;2.60;1.77;;;;;;;15.23;48.58;99821.72;3135998;28;20055;-59
2022/09/22 06:49:16;;;;;;;10.32;1.80;;;;;;;15.40;48.61;99824.13;3136320;28;20052;-59
2022/09/22 06:50:50;;;;;;;8.35;1.75;;;;;;;15.62;48.42;99844.56;3135662;28;20350;-59
2022/09/22 06:52:22;;;;;;;6.50;1.98;;;;;;;15.79;47.94;99827.72;3136570;28;20139;-59
2022/09/22 06:53:55;;;;;;;3.47;1.98;;;;;;;15.92;47.31;99833.84;3136283;28;20060;-59
2022/09/22 06:55:29;;;;;;;7.13;2.10;;;;;;;16.06;46.99;99838.19;3137167;28;20048;-59
2022/09/22 06:57:02;;;;;;;2.50;2.25;;;;;;;16.14;46.49;99832.41;3140072;28;20057;-59
2022/09/22 06:58:34;;;;;;;2.42;1.80;;;;;;;16.24;46.55;99835.25;3139919;28;20045;-59
2022/09/22 07:00:07;;;;;;;2.88;1.75;;;;;;;16.28;46.03;99840.19;3140014;28;20474;-59
2022/09/22 07:01:42;;;;;;;2.70;1.90;;;;;;;16.33;45.71;99839.91;3140446;28;20139;-59
2022/09/22 07:03:19;;;;;;;3.85;1.75;;;;;;;16.28;45.44;99831.47;3140321;28;20860;-59
2022/09/22 07:04:51;;;;;;;2.67;1.27;;;;;;;16.46;45.40;99845.16;3140154;28;20048;-59
2022/09/22 07:06:23;;;;;;;4.60;1.83;;;;;;;16.58;45.43;99839.03;3139688;28;20048;-58
2022/09/22 07:07:55;;;;;;;2.15;1.77;;;;;;;16.73;45.06;99840.59;3140080;28;20379;-59
2022/09/22 07:09:27;;;;;;;6.18;1.90;;;;;;;16.73;44.57;99837.97;3140180;28;20547;-59
2022/09/22 07:11:03;;;;;;;5.38;1.80;;;;;;;16.75;44.43;99835.25;3140040;28;20122;-59
2022/09/22 07:12:34;;;;;;;2.20;1.67;;;;;;;16.91;44.53;99827.13;3139881;28;20514;-59
2022/09/22 07:14:07;;;;;;;4.30;1.20;;;;;;;16.92;43.95;99827.03;3140044;28;20055;-59
2022/09/22 07:15:39;;;;;;;2.80;1.45;;;;;;;16.97;44.26;99827.53;3140194;28;20525;-58
2022/09/22 07:17:11;;;;;;;1.90;1.30;;;;;;;17.11;44.09;99833.59;3140024;28;20114;-58
2022/09/22 07:18:45;;;;;;;4.60;1.60;;;;;;;17.23;43.85;99827.44;3139613;28;20160;-58
2022/09/22 07:20:17;;;;;;;3.17;1.60;;;;;;;17.33;43.51;99828.44;3139995;28;20519;-58
2022/09/22 07:21:49;;;;;;;3.67;1.80;;;;;;;17.41;43.27;99825.28;3140054;28;20457;-58
2022/09/22 07:23:21;;;;;;;5.65;1.90;;;;;;;17.53;43.17;99834.91;3139895;28;20118;-58